• Join FlightAware (Why Join?)
  • Login
  • US Flag 
03:09AM EDT


 

Airport Tracker/Info


-or-


 

Live Flight TrackerFlight Track Log ✈ N612CT ✈ 16-Jul-2013 ✈ KAPF - KVNC

Flight Track Log - Related Links

Times and Time Zones

All times are in EDT time to prevent confusion due to time zone crossing. See the N612CT flight status page for this flight to view local times or setup timezone preferences in your user account.

Time Position Orientation Groundspeed Altitude Reporting Facility
EDT Latitude Longitude Course Direction KTS MPH feet Rate Location/Type
08:20AM 26.3936 -81.8605 340° North  Level FlightAware Approximate
08:21AM 26.4421 -81.8799 340° North  Level FlightAware Approximate
08:22AM 26.4907 -81.8992 340° North  Level FlightAware Approximate
08:23AM 26.5392 -81.9186 340° North  Level FlightAware Approximate
08:24AM 26.5877 -81.9380 340° North  Level FlightAware Approximate
08:25AM 26.6363 -81.9574 340° North  Level FlightAware Approximate
08:26AM 26.6848 -81.9769 340° North  Level FlightAware Approximate
08:27AM 26.7334 -81.9963 340° North  Level FlightAware Approximate
08:28AM 26.7819 -82.0158 340° North  Level FlightAware Approximate
08:29AM 26.8304 -82.0352 340° North  Level FlightAware Approximate
08:30AM 26.8789 -82.0547 340° North  Level FlightAware Approximate
08:31AM 26.9274 -82.0742 340° North  Level FlightAware Approximate
08:31AM 26.8167 -82.2833 294° West 177 204 4,000  Level Tampa TRACON
08:32AM 26.9597 -82.1123 291° West  Level FlightAware Approximate
08:32AM 26.8500 -82.3000 336° Northwest 177 204 4,000  Level Tampa TRACON
08:33AM 26.9777 -82.1665 291° West  Level FlightAware Approximate
08:33AM 26.8833 -82.3333 318° Northwest 179 206 3,700  Level Tampa TRACON
08:34AM 26.9911 -82.2222 283° West  Level FlightAware Approximate
08:34AM 26.9333 -82.3667 329° Northwest 190 219 3,100  Level Tampa TRACON
08:35AM 27.0045 -82.2779 294° West  Level FlightAware Approximate
08:35AM 26.9833 -82.3833 343° North 192 221 2,500  Level Tampa TRACON
08:36AM 27.0256 -82.3307 294° West  Level FlightAware Approximate
08:36AM 27.0333 -82.4167 329° Northwest 187 215 1,900  Level Tampa TRACON
08:37AM 27.0467 -82.3834 294° West  Level FlightAware Approximate
08:37AM 27.0667 -82.4333 336° Northwest 145 167 1,500  Level Tampa TRACON
08:38AM 27.0833 -82.4667 299° West 131 151 1,300 -420 Descending Tampa TRACON
08:39AM 27.0667 -82.4833 222° Southwest 111 128 700 -600 Descending Tampa TRACON